Time;durP1;ratioP1;P1;durP2;ratioP2;P2;SDS_P1;SDS_P2;PMS_P1;PMS_P2;Temp;Humidity;BMP_temperature;BMP_pressure;BME280_temperature;BME280_humidity;BME280_pressure;Samples;Min_cycle;Max_cycle;Signal;HPM_P1;HPM_P2
2023/03/05 06:00:21;;;;;;;;;19.00;18.00;;;;;9.15;60.51;44824.72;6090131;22;46009;-89
2023/03/05 06:02:46;;;;;;;;;17.33;14.67;;;;;9.22;60.68;44588.63;4992147;28;47120;-90
2023/03/05 06:05:13;;;;;;;;;19.67;16.00;;;;;9.71;60.64;44180.84;4995822;28;45910;-89
2023/03/05 06:07:39;;;;;;;;;18.67;15.00;;;;;9.58;60.92;43845.00;4996854;28;45444;-88
2023/03/05 06:23:40;;;;;;;;;23.33;18.33;;;;;9.57;61.40;40702.88;5010787;22;45581;-88
2023/03/05 06:26:07;;;;;;;;;18.00;17.33;;;;;8.85;61.38;40238.53;4998122;28;47791;-88
2023/03/05 06:28:33;;;;;;;;;15.67;15.00;;;;;8.29;61.39;39061.50;5014699;28;45426;-88
2023/03/05 06:31:01;;;;;;;;;15.67;13.67;;;;;9.65;61.13;39579.38;5016117;28;45443;-88
2023/03/05 06:33:27;;;;;;;;;21.00;17.67;;;;;9.36;60.88;39614.22;5016466;28;45434;-88
2023/03/05 06:35:52;;;;;;;;;21.00;17.67;;;;;8.86;61.36;39631.94;5016247;28;45411;-88
2023/03/05 06:38:18;;;;;;;;;17.67;15.33;;;;;9.04;60.95;39544.84;5019491;28;45412;-88
2023/03/05 06:40:43;;;;;;;;;17.33;15.00;;;;;9.41;60.65;39379.41;5019777;28;45379;-88
2023/03/05 06:43:08;;;;;;;;;19.00;14.67;;;;;9.66;60.90;39189.25;5020113;28;45400;-88
2023/03/05 06:45:33;;;;;;;;;17.67;14.33;;;;;9.18;61.02;39303.00;5019037;28;45467;-88
2023/03/05 06:47:59;;;;;;;;;15.67;15.67;;;;;9.19;61.14;38853.66;5001506;28;45700;-88
2023/03/05 06:50:24;;;;;;;;;19.00;14.33;;;;;9.21;60.91;39003.97;5001552;28;45418;-88
2023/03/05 06:52:50;;;;;;;;;13.33;12.00;;;;;9.65;61.32;38863.97;5002017;28;45532;-88
2023/03/05 06:55:17;;;;;;;;;16.00;15.00;;;;;9.34;61.08;39010.06;5001365;28;47377;-88
2023/03/05 06:57:42;;;;;;;;;15.33;13.33;;;;;8.91;60.46;38988.63;5019257;28;45391;-88
2023/03/05 07:00:09;;;;;;;;;17.00;15.00;;;;;8.65;60.97;38989.53;5001383;28;45360;-88
2023/03/05 07:02:38;;;;;;;;;14.33;13.33;;;;;9.59;60.99;39022.25;5019554;28;45748;-88
2023/03/05 07:05:06;;;;;;;;;14.33;13.33;;;;;9.05;61.01;38579.56;5001122;28;47379;-88
2023/03/05 07:07:32;;;;;;;;;12.67;12.67;;;;;9.04;60.68;38673.47;5018905;28;45416;-88
2023/03/05 07:09:57;;;;;;;;;14.67;11.00;;;;;9.70;61.10;38539.56;5001564;28;45433;-88
2023/03/05 07:12:22;;;;;;;;;19.00;12.33;;;;;8.87;60.90;39190.69;5019780;28;45462;-88
2023/03/05 07:14:48;;;;;;;;;15.67;14.00;;;;;9.76;60.60;39146.44;5000299;28;48459;-88
2023/03/05 07:17:14;;;;;;;;;13.33;13.33;;;;;9.46;60.62;38835.41;5019157;28;45328;-88
2023/03/05 07:19:40;;;;;;;;;13.33;13.00;;;;;9.70;61.00;38440.00;5001281;28;45371;-88
2023/03/05 07:22:06;;;;;;;;;12.00;9.00;;;;;8.77;60.88;38110.63;5019554;28;45498;-88
2023/03/05 07:24:32;;;;;;;;;13.33;12.33;;;;;9.42;60.85;37596.53;5000773;28;47634;-88
2023/03/05 07:26:58;;;;;;;;;15.67;13.00;;;;;9.34;61.01;37391.84;5000912;28;45359;-88
2023/03/05 07:29:25;;;;;;;;;18.00;15.00;;;;;9.72;60.95;37097.75;5000966;28;45375;-88
2023/03/05 07:31:50;;;;;;;;;18.33;16.00;;;;;9.74;61.11;36810.63;5017562;28;45333;-88
2023/03/05 07:34:16;;;;;;;;;15.33;13.00;;;;;9.48;61.17;36859.22;5000810;28;48441;-88
2023/03/05 07:36:41;;;;;;;;;14.00;12.00;;;;;8.72;61.43;36253.06;5018505;28;45359;-88
2023/03/05 07:39:07;;;;;;;;;17.00;15.00;;;;;9.77;61.18;35916.56;5001114;28;45367;-88
2023/03/05 07:41:33;;;;;;;;;15.00;13.33;;;;;9.64;61.27;35516.09;5018910;28;45432;-88
2023/03/05 07:43:58;;;;;;;;;15.67;12.00;;;;;9.59;61.09;35421.28;5018368;28;46286;-88
2023/03/05 07:46:27;;;;;;;;;14.67;13.33;;;;;9.13;60.84;35238.28;5018507;28;45583;-88
2023/03/05 07:48:53;;;;;;;;;16.00;14.33;;;;;9.82;61.27;34678.91;5018321;28;45379;-88
2023/03/05 07:51:20;;;;;;;;;15.67;13.00;;;;;9.83;60.80;34820.59;5000977;28;45583;-88
2023/03/05 07:53:48;;;;;;;;;15.33;13.33;;;;;9.90;61.05;34594.88;5018362;28;46044;-88
2023/03/05 07:56:21;;;;;;;;;19.33;16.00;;;;;9.86;60.91;35123.63;5018748;28;45495;-88
2023/03/05 07:58:46;;;;;;;;;21.00;20.00;;;;;8.94;61.03;34510.16;5000287;28;45379;-88
2023/03/05 08:01:13;;;;;;;;;18.33;16.00;;;;;9.90;61.06;34443.00;5000677;28;45194;-88
2023/03/05 08:03:39;;;;;;;;;20.67;18.67;;;;;9.07;60.87;34058.06;5017002;28;48408;-88
2023/03/05 08:06:05;;;;;;;;;16.33;14.33;;;;;9.74;61.12;34875.47;5018242;28;45494;-88
2023/03/05 08:08:31;;;;;;;;;19.33;15.67;;;;;9.17;60.79;35261.75;5000306;28;45345;-88
2023/03/05 08:11:02;;;;;;;;;12.00;11.00;;;;;9.14;60.74;35065.97;5000873;28;45406;-88
2023/03/05 08:13:28;;;;;;;;;18.00;12.33;;;;;9.98;60.73;34981.59;5017833;28;45513;-88
2023/03/05 08:15:53;;;;;;;;;18.00;14.00;;;;;9.80;60.83;35106.72;5018171;28;45438;-88
2023/03/05 08:18:18;;;;;;;;;17.00;15.00;;;;;9.55;60.60;34889.72;5018447;28;45372;-88
2023/03/05 08:20:44;;;;;;;;;16.33;13.33;;;;;9.50;60.50;34601.66;5018598;28;45412;-88
2023/03/05 08:23:09;;;;;;;;;14.67;11.67;;;;;9.57;60.32;35016.91;4999977;28;48087;-88
2023/03/05 08:25:34;;;;;;;;;20.67;17.33;;;;;9.96;60.24;35106.34;5016550;28;45411;-88
2023/03/05 08:28:00;;;;;;;;;16.00;13.00;;;;;9.13;60.37;35272.28;5000220;28;45414;-88
2023/03/05 08:30:26;;;;;;;;;16.67;13.67;;;;;10.12;60.72;34573.91;5000491;28;45566;-88
2023/03/05 08:32:52;;;;;;;;;14.67;14.67;;;;;10.15;60.46;34484.09;5017922;28;46457;-88
2023/03/05 08:35:17;;;;;;;;;16.33;13.67;;;;;10.14;60.46;35038.84;4999942;28;45910;-88
2023/03/05 08:37:42;;;;;;;;;19.33;16.67;;;;;9.36;60.35;35103.09;5017767;28;45350;-88
2023/03/05 08:40:09;;;;;;;;;18.67;17.00;;;;;10.27;60.25;34894.75;5018324;28;45339;-88
2023/03/05 08:42:34;;;;;;;;;15.00;13.00;;;;;10.07;60.29;34992.81;4999535;28;47400;-88
2023/03/05 08:44:59;;;;;;;;;15.00;14.00;;;;;10.02;60.28;34994.59;5017332;28;45524;-88
2023/03/05 08:47:26;;;;;;;;;19.33;18.67;;;;;9.52;60.15;35270.56;4999806;28;45386;-88
2023/03/05 08:49:54;;;;;;;;;18.67;15.00;;;;;10.41;59.60;35218.06;5000160;28;45202;-88
2023/03/05 08:52:22;;;;;;;;;18.33;16.00;;;;;9.78;59.95;35985.59;5017554;28;45536;-88
2023/03/05 08:54:48;;;;;;;;;18.67;14.00;;;;;9.81;59.26;36071.03;5017516;28;45506;-88
2023/03/05 08:57:13;;;;;;;;;19.33;16.00;;;;;10.32;59.33;36203.41;5017373;28;45742;-88
2023/03/05 08:59:55;;;;;;;;;23.33;18.33;;;;;10.41;59.65;36219.09;5010009;27;45351;-87
2023/03/05 09:02:21;;;;;;;;;15.00;15.00;;;;;10.24;59.70;36688.31;4988869;28;45434;-87
2023/03/05 09:04:46;;;;;;;;;20.67;15.33;;;;;10.13;59.23;37195.13;4989310;28;45748;-87
2023/03/05 09:07:11;;;;;;;;;19.67;18.67;;;;;10.28;59.50;37526.97;4989047;28;45589;-87
2023/03/05 09:09:37;;;;;;;;;14.67;12.00;;;;;10.02;59.89;37148.16;4988213;28;48293;-87
2023/03/05 09:12:03;;;;;;;;;17.67;16.00;;;;;10.02;59.38;37279.19;4990243;28;45400;-87
2023/03/05 09:14:28;;;;;;;;;17.00;14.33;;;;;10.05;59.17;37315.59;4988700;28;45423;-87
2023/03/05 09:16:55;;;;;;;;;18.00;13.67;;;;;10.38;59.66;36613.00;4990586;28;45262;-87
2023/03/05 09:19:20;;;;;;;;;15.00;14.00;;;;;10.37;59.32;36795.88;4990026;28;46480;-87
2023/03/05 09:21:45;;;;;;;;;16.00;16.00;;;;;10.13;59.35;36290.94;4988470;28;45294;-87
2023/03/05 09:24:11;;;;;;;;;20.33;16.00;;;;;10.78;58.55;37124.34;4990058;28;45300;-87
2023/03/05 09:26:37;;;;;;;;;18.00;16.33;;;;;10.22;58.29;37515.41;4988770;28;45534;-87
2023/03/05 09:29:03;;;;;;;;;19.00;14.67;;;;;10.88;57.50;39070.78;4988619;28;48390;-88
2023/03/05 09:31:28;;;;;;;;;21.67;17.00;;;;;11.01;57.84;39292.25;4989731;28;45442;-87
2023/03/05 09:33:54;;;;;;;;;18.67;15.67;;;;;10.56;57.95;40246.00;4989903;28;45451;-88
2023/03/05 09:36:26;;;;;;;;;17.33;15.00;;;;;10.00;57.52;40324.22;4990352;28;45418;-87
2023/03/05 09:38:52;;;;;;;;;17.00;16.33;;;;;10.96;57.69;40362.94;4989593;28;46594;-87
2023/03/05 09:41:44;;;;;;;;;16.00;15.00;;;;;11.03;57.53;41468.84;4989655;28;45353;-87
2023/03/05 09:44:16;;;;;;;;;14.67;14.67;;;;;11.07;57.41;42039.13;4988719;27;45322;-87
2023/03/05 09:46:44;;;;;;;;;15.33;14.67;;;;;11.08;57.54;42210.72;4988477;28;45630;-87
2023/03/05 09:49:43;;;;;;;;;19.00;17.00;;;;;11.10;57.28;42012.81;4988215;28;46919;-87
2023/03/05 09:52:20;;;;;;;;;16.00;14.00;;;;;10.83;57.29;42847.00;4989454;28;45403;-87
2023/03/05 09:54:52;;;;;;;;;17.00;17.00;;;;;11.16;57.03;43413.00;4989372;28;45286;-87
2023/03/05 09:57:22;;;;;;;;;18.67;16.00;;;;;10.90;57.38;42841.81;4989905;28;45440;-87
2023/03/05 09:59:58;;;;;;;;;24.67;18.00;;;;;11.13;57.57;42259.53;5007775;28;46958;-87
2023/03/05 10:02:29;;;;;;;;;23.67;17.00;;;;;11.16;57.31;42156.63;5007860;28;45436;-87
2023/03/05 10:05:07;;;;;;;;;19.33;15.33;;;;;11.18;57.24;42286.94;5010045;28;45456;-90
2023/03/05 10:07:37;;;;;;;;;17.33;15.33;;;;;10.89;57.37;42404.44;5009602;28;45309;-90
2023/03/05 10:10:08;;;;;;;;;18.00;15.00;;;;;11.09;56.84;43783.63;5002760;28;45483;-91
2023/03/05 10:12:51;;;;;;;;;24.00;15.00;;;;;11.24;56.67;43658.09;4996412;28;45446;-91
2023/03/05 10:15:35;;;;;;;;;16.33;15.67;;;;;11.10;57.07;43645.03;4996566;28;45349;-92
2023/03/05 10:18:00;;;;;;;;;14.00;13.67;;;;;11.28;56.53;44950.25;4995786;28;45494;-90
2023/03/05 10:20:41;;;;;;;;;14.33;12.00;;;;;11.28;56.22;45516.00;4995897;28;46718;-90
2023/03/05 10:23:06;;;;;;;;;18.67;14.67;;;;;11.26;56.57;45077.59;4995017;28;45483;-90
2023/03/05 10:25:53;;;;;;;;;15.00;13.00;;;;;11.23;56.73;45570.28;4995230;28;45404;-91
2023/03/05 10:28:39;;;;;;;;;16.33;12.33;;;;;11.23;55.96;46288.28;4995476;27;46110;-90
2023/03/05 10:31:36;;;;;;;;;12.33;12.33;;;;;11.22;56.49;45932.22;4994983;28;47358;-90
2023/03/05 10:34:26;;;;;;;;;10.67;10.33;;;;;11.26;56.64;45735.44;4994933;28;45950;-90
2023/03/05 10:37:07;;;;;;;;;14.33;14.33;;;;;11.22;57.14;45019.56;4994802;27;45379;-90
2023/03/05 10:39:42;;;;;;;;;16.00;13.00;;;;;10.76;56.54;45617.75;4995208;28;45340;-91
2023/03/05 10:42:31;;;;;;;;;14.67;13.00;;;;;11.31;56.66;45500.00;4995181;28;48374;-90
2023/03/05 10:45:00;;;;;;;;;16.67;12.33;;;;;10.74;56.34;46226.19;4952677;28;45549;-90
2023/03/05 10:47:30;;;;;;;;;15.00;12.67;;;;;11.33;55.61;47349.94;4915969;28;45410;-91
2023/03/05 10:49:57;;;;;;;;;12.67;11.67;;;;;11.31;55.30;48050.91;4900468;28;45523;-91
2023/03/05 10:52:33;;;;;;;;;14.67;12.67;;;;;10.90;55.89;48538.53;4915864;28;47824;-91
2023/03/05 10:54:59;;;;;;;;;10.67;10.00;;;;;11.04;55.81;48217.97;4900378;28;45750;-91
2023/03/05 10:57:27;;;;;;;;;11.33;9.33;;;;;11.40;55.25;48743.34;4900281;28;45402;-91
2023/03/05 11:00:04;;;;;;;;;12.00;10.67;;;;;11.40;55.36;48558.94;4933101;28;45611;-90
2023/03/05 11:02:30;;;;;;;;;14.67;13.67;;;;;10.93;55.21;49238.69;4919094;28;47435;-90
2023/03/05 11:04:55;;;;;;;;;8.67;7.00;;;;;11.12;55.00;50094.84;4935722;28;45501;-91
2023/03/05 11:07:23;;;;;;;;;12.67;10.00;;;;;11.40;54.92;50495.47;4935215;28;45256;-90
2023/03/05 11:10:14;;;;;;;;;11.33;10.33;;;;;11.38;54.13;51508.88;4919703;28;45406;-90
2023/03/05 11:12:39;;;;;;;;;12.67;8.00;;;;;11.21;54.31;52289.41;4941918;28;48251;-91
2023/03/05 11:15:21;;;;;;;;;9.33;9.33;;;;;11.41;54.15;52631.63;4935055;28;45479;-90
2023/03/05 11:18:04;;;;;;;;;8.67;8.00;;;;;11.42;54.38;52453.25;4935198;28;45374;-90
2023/03/05 11:20:33;;;;;;;;;10.00;9.00;;;;;11.45;53.90;53178.13;4918952;28;45548;-91
2023/03/05 11:23:08;;;;;;;;;5.00;5.00;;;;;11.43;53.53;54028.19;4989844;28;45376;-90
2023/03/05 11:25:34;;;;;;;;;9.00;7.33;;;;;11.19;53.18;54805.94;4978241;28;45418;-91
2023/03/05 11:28:01;;;;;;;;;10.00;10.00;;;;;11.07;53.68;54401.53;4978485;28;45385;-90
2023/03/05 11:30:30;;;;;;;;;11.67;10.00;;;;;10.62;53.61;54335.91;4994476;27;45444;-91
2023/03/05 11:33:18;;;;;;;;;11.00;10.00;;;;;11.41;53.84;54465.13;4978276;28;46903;-90
2023/03/05 11:35:43;;;;;;;;;14.67;12.00;;;;;11.04;53.30;54780.97;4977575;28;45388;-91
2023/03/05 11:38:24;;;;;;;;;12.33;9.33;;;;;11.39;53.67;54512.88;4978228;28;45374;-91
2023/03/05 11:40:51;;;;;;;;;13.67;10.67;;;;;11.29;53.87;54469.03;4996020;28;45361;-90
2023/03/05 11:43:20;;;;;;;;;13.00;10.00;;;;;11.39;53.71;54935.44;4977677;28;48472;-90
2023/03/05 11:45:49;;;;;;;;;13.33;10.00;;;;;11.07;54.03;54562.38;4995165;28;45462;-90
2023/03/05 11:48:29;;;;;;;;;10.33;8.67;;;;;10.97;53.17;55586.84;4978075;28;45431;-90
2023/03/05 11:50:57;;;;;;;;;9.33;9.33;;;;;11.26;53.67;55426.31;4977964;28;45615;-91
2023/03/05 11:53:29;;;;;;;;;10.00;10.00;;;;;11.00;53.40;55502.25;4977736;28;46399;-91
2023/03/05 11:56:06;;;;;;;;;11.00;10.00;;;;;11.07;53.06;55930.56;4977794;28;45711;-90
2023/03/05 11:58:38;;;;;;;;;11.00;10.33;;;;;11.36;52.82;56352.16;4977270;27;45371;-90
2023/03/05 12:01:13;;;;;;;;;7.33;7.33;;;;;11.47;52.69;56578.47;4978062;28;45556;-91
2023/03/05 12:03:38;;;;;;;;;11.33;8.67;;;;;10.71;52.17;56505.78;4977512;28;47753;-91
2023/03/05 12:06:44;;;;;;;;;10.67;9.67;;;;;11.44;52.28;57307.22;4977894;28;45393;-91
2023/03/05 12:09:42;;;;;;;;;10.33;10.33;;;;;11.52;52.07;57378.63;4977749;28;45266;-91
2023/03/05 12:12:07;;;;;;;;;24.00;21.67;;;;;11.59;52.22;57039.22;4977956;28;45397;-91
2023/03/05 12:14:49;;;;;;;;;10.33;10.00;;;;;11.60;52.02;57420.47;4977207;28;48210;-91
2023/03/05 12:17:16;;;;;;;;;11.00;11.00;;;;;11.62;52.06;57362.22;4995248;28;45368;-91
2023/03/05 12:20:05;;;;;;;;;12.00;10.00;;;;;11.26;51.97;57402.69;4976894;28;45398;-90
2023/03/05 12:22:36;;;;;;;;;11.00;9.67;;;;;11.64;52.47;57218.50;4977574;28;45615;-90
2023/03/05 12:25:23;;;;;;;;;7.00;7.00;;;;;11.63;51.87;57560.81;4977397;28;47750;-91
2023/03/05 12:27:48;;;;;;;;;10.00;9.00;;;;;10.85;51.83;57705.97;4977490;28;45477;-91
2023/03/05 12:30:32;;;;;;;;;7.67;7.33;;;;;11.64;51.33;58306.69;4977844;28;45689;-91
2023/03/05 12:32:59;;;;;;;;;7.67;7.67;;;;;11.37;51.52;58583.88;4977272;28;45419;-91
2023/03/05 12:35:28;;;;;;;;;8.00;6.00;;;;;11.69;52.01;58182.31;4994546;28;45539;-91
2023/03/05 12:37:53;;;;;;;;;11.33;8.00;;;;;11.69;51.67;58293.28;4977336;28;45459;-90
2023/03/05 12:40:25;;;;;;;;;10.67;9.00;;;;;11.72;51.51;58586.44;4977479;28;45441;-90
2023/03/05 12:42:55;;;;;;;;;7.67;7.67;;;;;11.24;51.18;58889.50;4978036;28;45349;-91
2023/03/05 12:45:22;;;;;;;;;6.00;6.00;;;;;11.72;51.09;59239.09;4976905;28;47384;-91
2023/03/05 12:47:53;;;;;;;;;8.00;8.00;;;;;11.71;50.85;59436.25;4976526;28;45487;-90
2023/03/05 12:50:28;;;;;;;;;11.00;9.00;;;;;11.73;50.88;59518.13;4977195;28;45423;-91
2023/03/05 12:52:56;;;;;;;;;11.67;9.33;;;;;11.26;50.58;59504.19;4977371;28;45237;-90
2023/03/05 12:55:26;;;;;;;;;14.33;13.67;;;;;11.76;51.18;59349.44;4976717;28;47640;-91
2023/03/05 12:57:57;;;;;;;;;10.00;9.00;;;;;10.88;50.86;59642.59;4976530;27;45498;-91
2023/03/05 13:00:32;;;;;;;;;5.00;5.00;;;;;11.48;50.65;59896.38;4994698;28;45633;-90
2023/03/05 13:03:01;;;;;;;;;5.00;5.00;;;;;11.30;50.96;60044.47;4977138;28;45591;-90
2023/03/05 13:05:30;;;;;;;;;9.33;8.33;;;;;11.35;50.33;60380.44;4976861;28;48288;-91
2023/03/05 13:08:36;;;;;;;;;9.00;8.67;;;;;11.67;50.08;60859.81;4976476;28;45347;-91
2023/03/05 13:11:15;;;;;;;;;9.33;8.00;;;;;11.67;49.68;61216.69;4995240;28;45472;-91
2023/03/05 13:13:45;;;;;;;;;9.33;7.00;;;;;11.65;49.45;61317.66;4995288;28;45582;-91
2023/03/05 13:16:19;;;;;;;;;8.00;7.67;;;;;11.64;49.73;61406.47;4994550;28;47685;-91
2023/03/05 13:18:48;;;;;;;;;8.00;6.00;;;;;11.17;49.15;61756.19;4994836;28;45417;-91
2023/03/05 13:21:16;;;;;;;;;13.00;9.00;;;;;11.62;49.33;61896.59;4995001;28;45407;-91
2023/03/05 13:23:56;;;;;;;;;7.00;7.00;;;;;11.45;49.24;62173.78;4995403;28;45472;-91
2023/03/05 13:26:24;;;;;;;;;6.33;6.33;;;;;11.63;49.34;62013.47;4994410;28;47236;-90
2023/03/05 13:29:09;;;;;;;;;10.33;10.00;;;;;11.62;49.29;62079.03;4994927;28;45522;-91
2023/03/05 13:31:43;;;;;;;;;8.67;7.67;;;;;10.96;48.62;62564.03;4994690;28;45471;-91
2023/03/05 13:34:35;;;;;;;;;7.00;7.00;;;;;11.62;48.53;62742.19;4978982;28;45401;-91
2023/03/05 13:37:08;;;;;;;;;10.33;10.33;;;;;11.46;48.76;62663.94;4994503;28;47659;-91
2023/03/05 13:39:41;;;;;;;;;13.67;12.33;;;;;11.00;49.01;62369.69;4994753;28;45463;-91
2023/03/05 13:42:23;;;;;;;;;15.33;12.67;;;;;11.11;49.51;62352.06;4978564;28;45451;-91
2023/03/05 13:45:04;;;;;;;;;14.67;14.67;;;;;11.66;49.38;62404.88;4986030;28;45651;-91
2023/03/05 13:47:32;;;;;;;;;10.33;9.00;;;;;11.69;49.37;62342.03;4959619;28;48033;-91
2023/03/05 13:50:00;;;;;;;;;14.00;13.00;;;;;11.17;49.51;62287.25;4976380;28;45416;-91
2023/03/05 13:52:30;;;;;;;;;10.67;10.67;;;;;11.49;49.57;62373.72;4976588;28;45482;-92
2023/03/05 13:55:00;;;;;;;;;11.00;10.67;;;;;11.77;49.09;62393.03;4976365;28;45318;-91
2023/03/05 13:57:31;;;;;;;;;12.67;10.00;;;;;11.81;48.73;62474.09;4975884;28;47364;-91
2023/03/05 13:59:56;;;;;;;;;9.67;9.00;;;;;11.82;49.33;62335.53;4977306;27;45569;-91
2023/03/05 14:02:23;;;;;;;;;13.00;11.00;;;;;11.59;48.82;62482.44;4980520;28;45608;-92
2023/03/05 14:04:48;;;;;;;;;9.00;9.00;;;;;11.49;48.73;62709.50;4979315;28;45437;-88
2023/03/05 14:07:19;;;;;;;;;12.00;8.00;;;;;11.84;48.04;62956.69;4995863;28;46033;-88
2023/03/05 14:09:50;;;;;;;;;10.00;9.00;;;;;11.88;48.13;63129.34;4995919;28;45330;-88
2023/03/05 14:12:22;;;;;;;;;15.00;11.33;;;;;11.90;48.47;63081.28;4978410;28;45444;-88
2023/03/05 14:14:49;;;;;;;;;10.00;10.00;;;;;11.78;48.25;63370.75;4996527;28;45385;-88
2023/03/05 14:17:26;;;;;;;;;11.67;9.33;;;;;11.75;48.20;63404.50;4995809;28;46583;-88
2023/03/05 14:20:05;;;;;;;;;10.00;9.00;;;;;10.70;48.47;63267.72;4995798;28;45549;-88
2023/03/05 14:22:34;;;;;;;;;12.67;11.33;;;;;11.76;48.48;63307.72;4995749;28;45341;-88
2023/03/05 14:25:00;;;;;;;;;7.00;7.00;;;;;11.78;48.67;63256.47;4978694;28;45330;-88
2023/03/05 14:27:29;;;;;;;;;10.33;9.00;;;;;10.84;48.20;63224.47;4995682;28;46470;-88
2023/03/05 14:29:54;;;;;;;;;8.33;8.33;;;;;11.25;48.11;63471.50;4995529;28;45302;-88
2023/03/05 14:32:31;;;;;;;;;11.00;7.00;;;;;11.82;47.94;63443.41;4996014;28;45696;-88
2023/03/05 14:34:59;;;;;;;;;9.00;9.00;;;;;11.45;48.55;63361.38;4978927;28;45632;-88
2023/03/05 14:37:38;;;;;;;;;9.67;9.00;;;;;11.85;48.55;63280.03;4977657;28;48349;-88
2023/03/05 14:40:19;;;;;;;;;12.67;10.00;;;;;11.51;48.82;63172.31;4995671;28;45335;-88
2023/03/05 14:42:54;;;;;;;;;9.67;8.00;;;;;11.90;48.05;63541.69;4995740;28;45386;-88
2023/03/05 14:45:21;;;;;;;;;9.00;7.00;;;;;11.92;48.63;63435.94;4995700;28;45366;-88
2023/03/05 14:47:49;;;;;;;;;10.33;9.00;;;;;11.92;48.45;63449.19;4977833;28;47122;-88
2023/03/05 14:50:17;;;;;;;;;10.00;7.67;;;;;11.58;47.78;63666.63;4995572;28;45347;-88
2023/03/05 14:52:44;;;;;;;;;12.00;10.00;;;;;11.72;48.32;63646.66;4995523;28;45396;-88
2023/03/05 14:55:15;;;;;;;;;10.00;8.67;;;;;11.94;48.58;63477.28;4995924;28;45430;-88
2023/03/05 14:57:40;;;;;;;;;9.00;9.00;;;;;11.81;48.32;63516.94;4994414;28;46306;-88
2023/03/05 15:00:27;;;;;;;;;10.67;10.00;;;;;11.95;48.55;63407.50;4977500;27;45328;-88
2023/03/05 15:02:53;;;;;;;;;9.67;8.33;;;;;11.99;48.77;63331.97;4995652;27;45399;-88
2023/03/05 15:05:19;;;;;;;;;10.00;9.00;;;;;11.95;48.48;63449.84;4978419;28;45578;-88
2023/03/05 15:07:45;;;;;;;;;10.00;8.67;;;;;11.50;48.19;63474.75;4977549;28;48116;-88
2023/03/05 15:10:19;;;;;;;;;9.67;8.00;;;;;11.46;48.24;63632.19;4977480;28;45979;-87
2023/03/05 15:12:45;;;;;;;;;10.67;10.33;;;;;11.76;48.40;63508.22;4977676;28;45346;-88
2023/03/05 15:15:13;;;;;;;;;10.67;9.00;;;;;11.92;48.16;63623.84;4995670;28;45342;-87
2023/03/05 15:17:42;;;;;;;;;11.00;9.33;;;;;11.11;48.33;63586.63;4977517;28;46308;-88
2023/03/05 15:20:13;;;;;;;;;6.67;6.67;;;;;11.95;48.20;63692.75;4995041;28;45513;-88
2023/03/05 15:22:38;;;;;;;;;10.00;8.33;;;;;11.62;47.14;64049.34;4977594;28;45374;-88
2023/03/05 15:25:04;;;;;;;;;8.67;8.67;;;;;11.90;47.49;64060.91;4995882;28;45489;-88
2023/03/05 15:27:30;;;;;;;;;10.67;8.00;;;;;11.03;47.36;63942.47;4976993;28;48404;-88
2023/03/05 15:29:55;;;;;;;;;7.67;6.00;;;;;11.74;47.58;64178.56;4995169;28;45180;-88
2023/03/05 15:32:20;;;;;;;;;10.33;9.33;;;;;11.19;47.62;64081.88;4977630;28;45326;-88
2023/03/05 15:34:46;;;;;;;;;12.67;10.00;;;;;11.44;47.66;64024.00;4995605;28;45496;-88
2023/03/05 15:37:11;;;;;;;;;9.67;8.00;;;;;11.67;47.73;64096.13;4995324;28;45543;-88
2023/03/05 15:39:37;;;;;;;;;12.67;11.00;;;;;11.19;47.88;64070.72;4977250;28;45744;-88
2023/03/05 15:42:02;;;;;;;;;10.00;8.00;;;;;11.94;48.08;64142.13;4977376;28;45315;-88
2023/03/05 15:44:29;;;;;;;;;8.33;7.00;;;;;11.60;47.49;64232.28;4994960;28;45325;-88
2023/03/05 15:46:55;;;;;;;;;6.33;6.00;;;;;11.27;47.57;64264.72;4995042;28;45577;-88
2023/03/05 15:49:23;;;;;;;;;11.00;8.33;;;;;11.92;47.34;64343.69;4994486;28;45393;-88
2023/03/05 15:51:49;;;;;;;;;9.33;8.00;;;;;11.91;46.98;64495.53;4994946;28;45603;-87
2023/03/05 15:54:14;;;;;;;;;6.00;6.00;;;;;10.97;47.24;64507.16;4995324;28;45343;-87
2023/03/05 15:56:40;;;;;;;;;9.00;8.00;;;;;11.43;47.09;64549.19;4994248;28;45374;-88
2023/03/05 15:59:08;;;;;;;;;9.33;8.00;;;;;10.78;46.99;64530.75;4985292;27;45366;-88
2023/03/05 16:01:33;;;;;;;;;7.00;7.00;;;;;11.42;47.36;64558.63;4977097;28;45408;-88
2023/03/05 16:03:59;;;;;;;;;9.33;7.67;;;;;11.29;47.56;64573.13;4994944;28;45659;-88
2023/03/05 16:06:25;;;;;;;;;13.67;12.00;;;;;11.19;47.07;64644.41;4994587;28;45452;-87
2023/03/05 16:08:58;;;;;;;;;10.00;10.00;;;;;10.98;47.73;64616.66;4976468;28;45866;-88
2023/03/05 16:11:25;;;;;;;;;9.00;7.33;;;;;11.69;47.82;64683.63;4994330;28;45361;-88
2023/03/05 16:13:50;;;;;;;;;7.67;7.67;;;;;11.50;48.03;64578.19;4977341;28;45311;-88
2023/03/05 16:16:17;;;;;;;;;9.33;7.33;;;;;11.27;47.78;64576.16;4976796;28;47473;-88
2023/03/05 16:18:44;;;;;;;;;9.00;8.33;;;;;11.61;47.91;64740.78;4976661;28;45403;-88
2023/03/05 16:21:10;;;;;;;;;6.67;6.67;;;;;11.46;47.82;64753.00;4994674;28;45367;-88
2023/03/05 16:23:36;;;;;;;;;8.00;8.00;;;;;11.56;47.11;64989.69;4977204;28;45360;-88
2023/03/05 16:26:01;;;;;;;;;11.33;10.00;;;;;11.16;47.02;64942.44;4994101;28;46413;-88
2023/03/05 16:28:26;;;;;;;;;9.67;9.67;;;;;10.77;47.71;64828.75;4994406;28;45333;-88
2023/03/05 16:30:56;;;;;;;;;18.67;13.33;;;;;11.39;47.88;64832.97;4976889;28;45410;-88
2023/03/05 16:33:22;;;;;;;;;10.00;10.00;;;;;11.34;47.91;64833.19;4994551;28;45416;-88
2023/03/05 16:35:48;;;;;;;;;8.00;8.00;;;;;10.80;47.82;64881.22;4976402;28;47045;-88
2023/03/05 16:38:14;;;;;;;;;9.00;8.33;;;;;11.03;47.59;65105.44;4976706;28;45621;-88
2023/03/05 16:40:39;;;;;;;;;10.33;10.33;;;;;10.83;47.92;64895.16;4993813;28;45304;-88
2023/03/05 16:43:04;;;;;;;;;9.00;8.00;;;;;11.02;48.33;64818.25;4994591;28;45322;-88
2023/03/05 16:45:30;;;;;;;;;15.33;12.67;;;;;10.69;48.39;64817.09;4972953;28;47935;-88
2023/03/05 16:47:57;;;;;;;;;15.00;11.33;;;;;10.87;48.70;64741.13;4957074;28;45504;-88
2023/03/05 16:50:22;;;;;;;;;11.33;11.00;;;;;11.37;48.61;64794.22;4974492;28;45420;-87
2023/03/05 16:52:47;;;;;;;;;15.67;13.00;;;;;10.91;48.87;64671.63;4974972;28;45528;-88
2023/03/05 16:55:13;;;;;;;;;16.67;13.67;;;;;10.96;48.58;64746.53;4956402;28;47181;-88
2023/03/05 16:57:39;;;;;;;;;14.67;11.00;;;;;10.93;48.66;64753.75;4973934;28;45426;-88
2023/03/05 17:00:07;;;;;;;;;12.67;12.67;;;;;10.90;48.99;64694.28;4993647;27;45343;-88
2023/03/05 17:02:32;;;;;;;;;14.33;14.33;;;;;10.52;49.07;64623.63;4976106;28;45647;-88
2023/03/05 17:04:58;;;;;;;;;17.67;15.33;;;;;10.80;49.27;64722.69;4976987;28;48201;-92
2023/03/05 17:07:25;;;;;;;;;15.00;13.33;;;;;11.03;49.33;64634.34;4994585;28;45417;-92
2023/03/05 17:09:51;;;;;;;;;12.00;11.33;;;;;10.78;48.72;64710.41;4976947;28;45354;-92
2023/03/05 17:12:17;;;;;;;;;11.33;11.33;;;;;10.97;49.23;64726.50;4977409;28;45516;-92
2023/03/05 17:14:43;;;;;;;;;12.00;12.00;;;;;10.46;49.31;64614.22;4976688;28;47650;-92
2023/03/05 17:17:08;;;;;;;;;16.67;15.00;;;;;10.86;49.49;64681.84;4976792;28;45620;-91
2023/03/05 17:19:34;;;;;;;;;15.00;12.67;;;;;10.99;49.61;64614.56;4976996;28;45450;-92
2023/03/05 17:21:59;;;;;;;;;10.67;9.00;;;;;10.85;49.31;64656.97;4980340;28;45774;-92
2023/03/05 17:24:25;;;;;;;;;14.67;12.67;;;;;10.56;49.56;64604.34;4979603;28;48016;-92
2023/03/05 17:26:50;;;;;;;;;14.00;11.00;;;;;11.12;49.79;64625.97;4997641;28;45515;-91
2023/03/05 17:29:17;;;;;;;;;11.67;10.67;;;;;10.48;49.48;64648.16;4979922;28;45385;-92
2023/03/05 17:31:43;;;;;;;;;15.33;14.00;;;;;10.68;49.43;64672.75;4980131;28;45589;-91
2023/03/05 17:34:09;;;;;;;;;13.00;11.33;;;;;10.57;49.59;64629.78;4979374;28;48288;-91
2023/03/05 17:36:34;;;;;;;;;15.00;13.00;;;;;10.85;49.81;64649.59;4997289;28;45362;-91
2023/03/05 17:38:59;;;;;;;;;13.33;13.33;;;;;10.70;49.44;64674.97;4979273;28;45355;-91
2023/03/05 17:41:25;;;;;;;;;13.67;13.33;;;;;10.63;49.42;64694.09;4980163;28;45392;-91
2023/03/05 17:43:50;;;;;;;;;16.00;15.67;;;;;10.43;49.76;64605.56;4979607;28;46892;-91
2023/03/05 17:46:16;;;;;;;;;8.67;8.00;;;;;10.90;49.57;64734.50;4997420;28;45361;-91
2023/03/05 17:48:41;;;;;;;;;19.67;15.67;;;;;10.86;49.46;64774.34;4979514;28;45365;-91